createdAt,value
2022-09-16T00:00:15.467Z,98612.13
2022-09-16T00:03:18.126Z,98602.31
2022-09-16T00:06:23.728Z,98609.38
2022-09-16T00:09:25.420Z,98614.81
2022-09-16T00:12:27.147Z,98605.88
2022-09-16T00:15:28.860Z,98604.31
2022-09-16T00:18:30.542Z,98614.13
2022-09-16T00:21:32.541Z,98597.72
2022-09-16T00:24:34.170Z,98593.06
2022-09-16T00:27:35.932Z,98602.41
2022-09-16T00:30:37.581Z,98576.22
2022-09-16T00:33:39.267Z,98583.72
2022-09-16T00:36:40.934Z,98583.56
2022-09-16T00:39:42.736Z,98591.13
2022-09-16T00:42:44.409Z,98595.63
2022-09-16T00:45:54.752Z,98579.38
2022-09-16T00:48:58.722Z,98558.22
2022-09-16T00:52:04.415Z,98568.75
2022-09-16T00:55:10.104Z,98583.66
2022-09-16T00:58:29.284Z,98594.63
2022-09-16T01:01:32.074Z,98574.19
2022-09-16T01:04:41.545Z,98570.75
2022-09-16T01:07:46.048Z,98575.84
2022-09-16T01:10:47.771Z,98578.56
2022-09-16T01:13:50.282Z,98567.38
2022-09-16T01:17:05.719Z,98571.25
2022-09-16T01:20:31.815Z,98585.31
2022-09-16T01:24:10.634Z,98591.19
2022-09-16T01:27:30.272Z,98587.69
2022-09-16T01:30:59.172Z,98570.78
2022-09-16T01:34:39.222Z,98581.41
2022-09-16T01:38:14.584Z,98579.41
2022-09-16T01:41:28.848Z,98579.06
2022-09-16T01:44:46.087Z,98570.00
2022-09-16T01:48:06.785Z,98585.22
2022-09-16T01:51:42.376Z,98580.50
2022-09-16T01:54:53.995Z,98577.91
2022-09-16T01:58:03.366Z,98563.00
2022-09-16T02:01:12.887Z,98575.53
2022-09-16T02:04:24.036Z,98554.78
2022-09-16T02:07:34.146Z,98577.09
2022-09-16T02:10:43.834Z,98569.72
2022-09-16T02:13:51.830Z,98578.84
2022-09-16T02:17:05.508Z,98576.81
2022-09-16T02:20:14.759Z,98581.06
2022-09-16T02:23:22.168Z,98559.13
2022-09-16T02:26:36.986Z,98583.91
2022-09-16T02:29:44.642Z,98558.56
2022-09-16T02:32:52.206Z,98562.63
2022-09-16T02:35:55.549Z,98560.13
2022-09-16T02:39:05.773Z,98563.31
2022-09-16T02:42:08.033Z,98569.22
2022-09-16T02:45:10.277Z,98557.97
2022-09-16T02:48:21.366Z,98562.63
2022-09-16T02:51:32.016Z,98564.97
2022-09-16T02:54:45.189Z,98551.31
2022-09-16T02:57:47.076Z,98550.00
2022-09-16T03:00:53.314Z,98560.22
2022-09-16T03:03:55.225Z,98557.91
2022-09-16T03:06:57.227Z,98557.19
2022-09-16T03:09:59.087Z,98542.63
2022-09-16T03:13:28.825Z,98551.72
2022-09-16T03:16:53.218Z,98550.94
2022-09-16T03:20:30.168Z,98549.03
2022-09-16T03:24:07.629Z,98546.22
2022-09-16T03:27:11.697Z,98541.97
2022-09-16T03:30:13.581Z,98546.53
2022-09-16T03:33:34.742Z,98541.59
2022-09-16T03:36:41.473Z,98540.88
2022-09-16T03:39:47.849Z,98528.00
2022-09-16T03:42:52.482Z,98530.09
2022-09-16T03:45:54.266Z,98514.47
2022-09-16T03:48:57.254Z,98517.88
2022-09-16T03:51:59.314Z,98528.06
2022-09-16T03:55:00.992Z,98503.31
2022-09-16T03:58:02.695Z,98528.53
2022-09-16T04:01:04.937Z,98522.31
2022-09-16T04:04:06.755Z,98517.28
2022-09-16T04:07:08.476Z,98515.38
2022-09-16T04:10:18.796Z,98529.44
2022-09-16T04:13:20.440Z,98530.47
2022-09-16T04:16:22.314Z,98514.13
2022-09-16T04:19:24.853Z,98517.66
2022-09-16T04:22:30.791Z,98526.69
2022-09-16T04:25:32.476Z,98532.41
2022-09-16T04:28:34.336Z,98523.06
2022-09-16T04:31:36.103Z,98516.25
2022-09-16T04:34:37.775Z,98513.63
2022-09-16T04:37:39.423Z,98528.06
2022-09-16T04:40:41.081Z,98525.69
2022-09-16T04:43:42.727Z,98517.81
2022-09-16T04:46:44.484Z,98536.94
2022-09-16T04:49:46.189Z,98527.78
2022-09-16T04:52:48.048Z,98528.53
2022-09-16T04:55:49.910Z,98521.28
2022-09-16T04:58:54.846Z,98541.59
2022-09-16T05:01:57.206Z,98529.63
2022-09-16T05:04:59.122Z,98536.50
2022-09-16T05:08:01.092Z,98548.34
2022-09-16T05:11:09.363Z,98547.66
2022-09-16T05:14:15.955Z,98549.00
2022-09-16T05:17:39.458Z,98523.16
2022-09-16T05:20:39.525Z,98524.47
2022-09-16T05:23:44.534Z,98539.56
2022-09-16T05:26:48.316Z,98536.47
2022-09-16T05:29:50.159Z,98534.13
2022-09-16T05:32:55.365Z,98532.34
2022-09-16T05:36:06.405Z,98528.53
2022-09-16T05:39:25.020Z,98538.34
2022-09-16T05:42:27.334Z,98538.69
2022-09-16T05:45:32.401Z,98556.25
2022-09-16T05:48:36.438Z,98522.72
2022-09-16T05:51:41.478Z,98546.41
2022-09-16T05:54:44.603Z,98529.25
2022-09-16T05:57:46.484Z,98530.94
2022-09-16T06:00:48.480Z,98534.09
2022-09-16T06:03:52.025Z,98542.31
2022-09-16T06:06:53.935Z,98553.31
2022-09-16T06:09:55.867Z,98565.91
2022-09-16T06:12:57.672Z,98552.66
2022-09-16T06:15:59.775Z,98581.38
2022-09-16T06:19:03.812Z,98573.19
2022-09-16T06:22:16.481Z,98557.28
2022-09-16T06:25:18.778Z,98551.09
2022-09-16T06:28:21.166Z,98572.59
2022-09-16T06:31:26.310Z,98570.81
2022-09-16T06:34:28.307Z,98549.97
2022-09-16T06:37:30.505Z,98568.91
2022-09-16T06:40:32.480Z,98563.56
2022-09-16T06:43:35.174Z,98583.16
2022-09-16T06:46:39.806Z,98596.88
2022-09-16T06:49:44.803Z,98586.91
2022-09-16T06:52:54.486Z,98607.50
2022-09-16T06:56:04.812Z,98556.34
2022-09-16T06:59:07.943Z,98585.19
2022-09-16T07:02:11.778Z,98592.50
2022-09-16T07:05:13.889Z,98599.25
2022-09-16T07:08:16.094Z,98639.88
2022-09-16T07:11:25.234Z,98619.06
2022-09-16T07:14:28.381Z,98591.44
2022-09-16T07:17:30.376Z,98610.84
2022-09-16T07:20:32.260Z,98628.22
2022-09-16T07:23:35.364Z,98630.13
2022-09-16T07:26:39.891Z,98627.41
2022-09-16T07:29:47.177Z,98637.81
2022-09-16T07:33:01.427Z,98582.13
2022-09-16T07:36:37.778Z,98606.66
2022-09-16T07:39:44.521Z,98586.50
2022-09-16T07:42:54.200Z,98586.91
2022-09-16T07:46:00.734Z,98621.69
2022-09-16T07:49:12.159Z,98619.53
2022-09-16T07:52:17.405Z,98610.25
2022-09-16T07:55:27.829Z,98636.81
2022-09-16T08:03:13.196Z,98637.16
2022-09-16T08:06:21.016Z,98639.25
2022-09-16T08:22:40.401Z,98662.84
2022-09-16T08:25:46.341Z,98592.31
2022-09-16T08:29:07.976Z,98647.06
2022-09-16T08:32:11.667Z,98635.94
2022-09-16T08:35:14.523Z,98667.50
2022-09-16T08:38:16.277Z,98667.50
2022-09-16T08:41:26.803Z,98678.00
2022-09-16T08:44:51.966Z,98673.19
2022-09-16T08:48:10.046Z,98680.16
2022-09-16T08:51:19.837Z,98667.06
2022-09-16T08:54:31.182Z,98677.78
2022-09-16T08:57:40.153Z,98672.44
2022-09-16T09:00:49.815Z,98681.06
2022-09-16T09:03:51.698Z,98680.75
2022-09-16T09:07:16.977Z,98687.84
2022-09-16T09:10:47.723Z,98695.06
2022-09-16T09:14:04.506Z,98700.63
2022-09-16T09:17:21.384Z,98701.63
2022-09-16T09:20:50.502Z,98707.44
2022-09-16T09:24:20.075Z,98706.59
2022-09-16T09:27:40.760Z,98703.56
2022-09-16T09:30:49.324Z,98700.91
2022-09-16T09:34:09.072Z,98694.50
2022-09-16T09:37:36.347Z,98693.56
2022-09-16T09:40:49.196Z,98699.41
2022-09-16T09:44:15.579Z,98697.47
2022-09-16T09:47:33.245Z,98702.19
2022-09-16T09:50:45.164Z,98699.28
2022-09-16T09:53:53.212Z,98693.50
2022-09-16T09:57:16.721Z,98701.81
2022-09-16T10:00:22.095Z,98705.16
2022-09-16T10:03:24.943Z,98713.31
2022-09-16T10:06:30.719Z,98711.31
2022-09-16T10:09:33.803Z,98706.38
2022-09-16T10:12:36.637Z,98706.97
2022-09-16T10:15:39.432Z,98716.13
2022-09-16T10:18:41.803Z,98696.59
2022-09-16T10:21:51.086Z,98714.66
2022-09-16T10:24:57.182Z,98711.94
2022-09-16T10:28:26.347Z,98701.81
2022-09-16T10:31:34.824Z,98703.63
2022-09-16T10:34:40.271Z,98706.34
2022-09-16T10:37:51.846Z,98696.13
2022-09-16T10:40:58.064Z,98709.28
2022-09-16T10:44:01.394Z,98698.47
2022-09-16T10:47:08.407Z,98699.84
2022-09-16T10:50:19.550Z,98688.66
2022-09-16T10:53:26.294Z,98702.28
2022-09-16T10:56:49.239Z,98696.66
2022-09-16T10:59:58.166Z,98682.31
2022-09-16T11:03:15.408Z,98686.72
2022-09-16T11:06:51.028Z,98686.06
2022-09-16T11:09:57.474Z,98683.31
2022-09-16T11:13:36.962Z,98691.75
2022-09-16T11:17:17.488Z,98686.84
2022-09-16T11:20:43.506Z,98696.28
2022-09-16T11:24:17.295Z,98697.66
2022-09-16T11:27:52.768Z,98703.22
2022-09-16T11:31:17.116Z,98696.91
2022-09-16T11:34:52.355Z,98701.84
2022-09-16T11:38:19.162Z,98705.47
2022-09-16T11:41:37.599Z,98704.13
2022-09-16T11:45:29.382Z,98686.16
2022-09-16T11:48:59.803Z,98696.16
2022-09-16T11:52:21.511Z,98708.56
2022-09-16T11:55:43.917Z,98698.63
2022-09-16T11:58:50.404Z,98703.63
2022-09-16T12:02:03.453Z,98698.34
2022-09-16T12:05:23.185Z,98704.69
2022-09-16T12:08:53.231Z,98700.31
2022-09-16T12:12:05.779Z,98695.22
2022-09-16T12:15:19.117Z,98703.25
2022-09-16T12:18:33.325Z,98683.31
2022-09-16T12:21:42.963Z,98692.03
2022-09-16T12:25:06.606Z,98683.31
2022-09-16T12:28:17.673Z,98694.75
2022-09-16T12:31:24.231Z,98685.09
2022-09-16T12:34:29.683Z,98682.81
2022-09-16T12:37:45.978Z,98675.16
2022-09-16T12:40:58.039Z,98679.75
2022-09-16T12:44:34.285Z,98673.84
2022-09-16T12:48:24.756Z,98674.56
2022-09-16T12:51:45.907Z,98685.22
2022-09-16T12:55:25.737Z,98683.66
2022-09-16T12:58:52.396Z,98676.63
2022-09-16T13:02:01.784Z,98666.22
2022-09-16T13:05:14.637Z,98673.06
2022-09-16T13:08:26.689Z,98660.97
2022-09-16T13:14:54.881Z,98669.56
2022-09-16T13:18:09.151Z,98661.72
2022-09-16T13:21:20.806Z,98670.31
2022-09-16T13:24:36.726Z,98667.13
2022-09-16T13:27:40.589Z,98667.09
2022-09-16T13:30:42.504Z,98656.22
2022-09-16T13:33:46.883Z,98666.97
2022-09-16T13:36:48.687Z,98668.31
2022-09-16T13:39:50.547Z,98653.03
2022-09-16T13:43:23.806Z,98660.91
2022-09-16T13:46:38.194Z,98664.22
2022-09-16T13:49:53.465Z,98654.28
2022-09-16T13:52:55.290Z,98657.44
2022-09-16T13:56:07.273Z,98659.50
2022-09-16T13:59:37.360Z,98661.28
2022-09-16T14:03:06.135Z,98664.66
2022-09-16T14:06:23.621Z,98668.41
2022-09-16T14:09:45.495Z,98654.97
2022-09-16T14:13:17.561Z,98658.50
2022-09-16T14:16:26.313Z,98659.63
2022-09-16T14:19:32.957Z,98651.03
2022-09-16T14:22:35.018Z,98656.16
2022-09-16T14:25:38.708Z,98651.16
2022-09-16T14:28:40.703Z,98668.88
2022-09-16T14:31:45.352Z,98662.88
2022-09-16T14:34:50.467Z,98659.41
2022-09-16T14:38:03.783Z,98662.19
2022-09-16T14:41:07.827Z,98656.41
2022-09-16T14:44:18.803Z,98652.19
2022-09-16T14:47:47.366Z,98645.09
2022-09-16T14:50:52.001Z,98648.38
2022-09-16T14:54:12.218Z,98655.81
2022-09-16T14:57:23.176Z,98644.41
2022-09-16T15:00:49.247Z,98645.59
2022-09-16T15:04:05.106Z,98642.31
2022-09-16T15:07:15.932Z,98634.69
2022-09-16T15:10:26.948Z,98620.88
2022-09-16T15:13:35.499Z,98604.38
2022-09-16T15:16:49.832Z,98628.78
2022-09-16T15:19:58.240Z,98604.91
2022-09-16T15:23:02.818Z,98630.44
2022-09-16T15:26:18.818Z,98612.47
2022-09-16T15:29:20.737Z,98629.09
2022-09-16T15:32:27.528Z,98627.59
2022-09-16T15:35:35.635Z,98632.44
2022-09-16T15:38:40.953Z,98624.25
2022-09-16T15:41:45.540Z,98629.06
2022-09-16T15:44:50.224Z,98634.13
2022-09-16T15:47:56.941Z,98630.78
2022-09-16T15:51:08.292Z,98634.16
2022-09-16T15:54:31.300Z,98639.69
2022-09-16T15:57:36.097Z,98642.41
2022-09-16T16:01:13.398Z,98634.97
2022-09-16T16:04:25.512Z,98637.06
2022-09-16T16:07:41.144Z,98648.75
2022-09-16T16:10:44.820Z,98641.75
2022-09-16T16:13:47.535Z,98631.59
2022-09-16T16:17:11.095Z,98638.47
2022-09-16T16:20:13.484Z,98633.19
2022-09-16T16:23:15.159Z,98631.06
2022-09-16T16:26:17.128Z,98646.66
2022-09-16T16:29:18.759Z,98634.88
2022-09-16T16:32:20.353Z,98655.69
2022-09-16T16:35:21.977Z,98654.56
2022-09-16T16:38:23.645Z,98647.78
2022-09-16T16:41:25.815Z,98646.34
2022-09-16T16:44:27.785Z,98669.09
2022-09-16T16:47:29.400Z,98670.56
2022-09-16T16:50:31.111Z,98672.84
2022-09-16T16:53:32.929Z,98673.94
2022-09-16T16:56:34.600Z,98681.56
2022-09-16T16:59:36.551Z,98672.88
2022-09-16T17:02:38.174Z,98678.59
2022-09-16T17:05:39.943Z,98682.50
2022-09-16T17:08:41.714Z,98677.47
2022-09-16T17:11:55.227Z,98685.81
2022-09-16T17:14:56.904Z,98686.47
2022-09-16T17:17:58.611Z,98673.38
2022-09-16T17:21:09.056Z,98688.72
2022-09-16T17:24:11.130Z,98698.91
2022-09-16T17:27:14.690Z,98698.03
2022-09-16T17:30:16.987Z,98694.47
2022-09-16T17:33:18.643Z,98690.06
2022-09-16T17:36:22.244Z,98693.50
2022-09-16T17:39:24.180Z,98691.00
2022-09-16T17:42:25.920Z,98693.50
2022-09-16T17:45:27.561Z,98688.66
2022-09-16T17:48:29.976Z,98712.53
2022-09-16T17:51:33.000Z,98719.09
2022-09-16T17:54:34.655Z,98720.38
2022-09-16T17:57:36.287Z,98712.50
2022-09-16T18:00:38.340Z,98721.16
2022-09-16T18:03:42.429Z,98742.97
2022-09-16T18:06:46.136Z,98748.25
2022-09-16T18:09:47.779Z,98734.53
2022-09-16T18:12:49.502Z,98755.19
2022-09-16T18:15:51.121Z,98743.09
2022-09-16T18:18:55.773Z,98756.16
2022-09-16T18:21:57.481Z,98755.75
2022-09-16T18:24:59.253Z,98757.38
2022-09-16T18:28:00.891Z,98755.91
2022-09-16T18:31:05.188Z,98745.31
2022-09-16T18:34:07.359Z,98768.38
2022-09-16T18:37:09.145Z,98762.03
2022-09-16T18:40:11.335Z,98760.97
2022-09-16T18:43:13.009Z,98757.13
2022-09-16T18:46:26.513Z,98771.75
2022-09-16T18:49:30.198Z,98764.31
2022-09-16T18:52:32.074Z,98777.34
2022-09-16T18:55:33.783Z,98771.13
2022-09-16T18:58:35.489Z,98783.81
2022-09-16T19:01:38.719Z,98776.47
2022-09-16T19:04:42.517Z,98794.81
2022-09-16T19:07:44.289Z,98791.69
2022-09-16T19:10:45.910Z,98788.59
2022-09-16T19:13:47.601Z,98798.50
2022-09-16T19:16:49.461Z,98801.56
2022-09-16T19:19:51.210Z,98802.69
2022-09-16T19:22:52.931Z,98788.97
2022-09-16T19:26:01.063Z,98803.75
2022-09-16T19:29:06.791Z,98804.44
2022-09-16T19:32:08.695Z,98804.38
2022-09-16T19:35:10.439Z,98798.16
2022-09-16T19:38:12.169Z,98798.31
2022-09-16T19:41:14.697Z,98802.25
2022-09-16T19:44:17.937Z,98799.28
2022-09-16T19:47:19.683Z,98808.19
2022-09-16T19:50:21.289Z,98808.19
2022-09-16T19:53:22.874Z,98820.09
2022-09-16T19:56:27.177Z,98812.63
2022-09-16T19:59:28.965Z,98806.91
2022-09-16T20:02:30.625Z,98806.44
2022-09-16T20:05:32.442Z,98799.34
2022-09-16T20:08:36.789Z,98805.97
2022-09-16T20:11:42.878Z,98817.69
2022-09-16T20:14:44.481Z,98815.94
2022-09-16T20:17:46.289Z,98820.22
2022-09-16T20:20:49.359Z,98817.75
2022-09-16T20:23:52.220Z,98832.72
2022-09-16T20:26:56.005Z,98838.94
2022-09-16T20:29:57.699Z,98837.28
2022-09-16T20:32:59.333Z,98832.53
2022-09-16T20:36:06.587Z,98842.03
2022-09-16T20:39:09.158Z,98843.91
2022-09-16T20:42:10.902Z,98841.19
2022-09-16T20:45:12.836Z,98833.94
2022-09-16T20:48:14.526Z,98848.38
2022-09-16T20:51:19.128Z,98839.97
2022-09-16T20:54:20.855Z,98836.81
2022-09-16T20:57:22.606Z,98850.88
2022-09-16T21:00:24.286Z,98846.06
2022-09-16T21:03:25.949Z,98838.50
2022-09-16T21:06:29.218Z,98849.47
2022-09-16T21:09:30.991Z,98860.72
2022-09-16T21:12:32.663Z,98858.28
2022-09-16T21:15:34.270Z,98851.63
2022-09-16T21:18:35.929Z,98852.50
2022-09-16T21:21:40.468Z,98854.69
2022-09-16T21:24:42.589Z,98863.91
2022-09-16T21:27:44.170Z,98862.78
2022-09-16T21:30:45.955Z,98860.09
2022-09-16T21:33:52.019Z,98868.31
2022-09-16T21:36:53.768Z,98863.34
2022-09-16T21:39:55.486Z,98867.06
2022-09-16T21:42:57.240Z,98864.16
2022-09-16T21:45:59.578Z,98866.06
2022-09-16T21:49:03.274Z,98864.38
2022-09-16T21:52:05.202Z,98860.09
2022-09-16T21:55:07.237Z,98872.84
2022-09-16T21:58:09.173Z,98860.88
2022-09-16T22:01:20.399Z,98871.84
2022-09-16T22:04:24.376Z,98871.25
2022-09-16T22:07:26.076Z,98863.72
2022-09-16T22:10:29.240Z,98872.97
2022-09-16T22:13:32.383Z,98865.97
2022-09-16T22:16:37.505Z,98866.88
2022-09-16T22:19:39.231Z,98865.88
2022-09-16T22:22:40.905Z,98869.91
2022-09-16T22:25:42.508Z,98865.78
2022-09-16T22:28:44.316Z,98865.72
2022-09-16T22:31:46.299Z,98877.69
2022-09-16T22:34:49.536Z,98880.41
2022-09-16T22:37:51.464Z,98868.66
2022-09-16T22:40:53.345Z,98876.94
2022-09-16T22:43:55.329Z,98872.84
2022-09-16T22:46:57.131Z,98882.00
2022-09-16T22:49:59.170Z,98878.00
2022-09-16T22:53:01.180Z,98875.47
2022-09-16T22:56:07.844Z,98876.22
2022-09-16T22:59:16.362Z,98873.88
2022-09-16T23:02:17.961Z,98879.84
2022-09-16T23:05:19.677Z,98871.16
2022-09-16T23:08:21.647Z,98874.53
2022-09-16T23:11:26.370Z,98887.19
2022-09-16T23:14:28.150Z,98884.47
2022-09-16T23:17:29.831Z,98886.28
2022-09-16T23:20:32.140Z,98886.97
2022-09-16T23:23:39.661Z,98883.22
2022-09-16T23:26:41.648Z,98880.66
2022-09-16T23:29:43.390Z,98874.09
2022-09-16T23:32:45.348Z,98887.50
2022-09-16T23:35:49.950Z,98887.28
2022-09-16T23:38:53.019Z,98890.88
2022-09-16T23:41:54.684Z,98896.41
2022-09-16T23:44:56.426Z,98896.41
2022-09-16T23:47:58.223Z,98893.69
2022-09-16T23:50:59.939Z,98903.03
2022-09-16T23:54:01.628Z,98903.84
2022-09-16T23:57:03.457Z,98909.00
